Huzhou, China
Current Conditions -  °F | °C
As of 2:30 AM on Saturday 01 Nov 2014 (Local Time) from ZSHC Reporting Station
Broken Clouds Broken Clouds  
Wind Chill: 64°   Ceiling: 2000
Heat Index: 64°   Visibility: 4mi
Dew Point: 59°   Wind: 2mph
Humidity: 83%   Direction: NA
Pressure: 30.03"   Gusts: NA
Location:  30.87°N, 120.1°E
Report Text: ZSHC 311830Z VRB01MPS 6000 BKN020 18/15 Q1017 NOSIG
Loading
Personal Weather Stations






























Interactive Weather Map
Tropical Storm Tracking
New forecast layout! Learn more

10-Day Weather Forecast

Advertisements
Track Severe Weather on mobile